Aérodrome :
LOGIN :

S'inscrire | Disclaimer

   EN    FR    IT 

 










Légende :    VFR   VFR Marginal   IFR   IFR Intensif   IFR Très Intensif
Visi : 
Plafond : 
>= 8 km
>= 3000ft
5 à 8 km
1000 à 3000 ft
1500m à 5 km
500 à 1000 ft
800 à 1500m
200 à 500 ft
< 800m
< 200 ft
Symboles :   Orages  Brouillard  Fortes neiges  Fortes précipitations  Vent > 20 kt
SIGMETs :   Divers  Orages  Givrage  Turbulence  Onde Orograph.  Cendres Volcan.






- Altitude de l'aérodrome : 1411 ft
- Code IATA : SZG


LOWS - Salzburg

DERNIER METAR :
  • 221750Z 16007KT 6000 FEW004 BKN005 M02/M03 Q1033 BECMG 33004KT 4500 BR

METARs EXPIRÉS :
  • 221720Z 22005KT 7000 FEW005 BKN006 M02/M03 Q1034 BECMG BKN005
  • 221650Z 30004KT 7000 FEW005 BKN006 M02/M03 Q1034 BECMG BKN005
  • 221620Z VRB02KT 8000 FEW005 BKN006 M02/M03 Q1033 BECMG BKN005
  • 221550Z 35003KT 300V020 8000 FEW006 BKN007 M02/M03 Q1033 NOSIG
  • 221520Z 32004KT 290V360 8000 FEW006 BKN007 M02/M03 Q1033 NOSIG

TAF TAF LOWS
Valide du 22 à 18h jusqu'au 23 à 18h UTC


221715Z 2218/2318 33004KT 7000 BKN006 TX02/2314Z TNM05/2302Z
TEMPO 2218/2310 VRB02KT 4000 BR BKN004
PROB30
TEMPO 2304/2308 0800 FZBCFG
BECMG 2310/2312 02005KT FEW005 BKN010
TEMPO 2310/2316 9999 SCT010



MET'MAP, la Météo Aéronautique d'un coup d'oeil ! - Copyright ORBIFLY Décembre 2007 - Disclaimer

ORBIFLY MET'MAP TEAM :

Programmation & Développement : Alexandra Zaïnal
Sur une idée originale de : Baudouin d'Aumeries
Assistance à la programmation : Marc-Olivier Méhu
Soutien technique & logistique : Manuel Goepfert

Contact : metmap@orbifly.com




SOURCES & CREDITS :

   NOAA